Terminal Aerodrome Forecast
Issued by NWS

Home | Current Version | Previous Version | Text Only | Print | Product List | Glossary Off
Versions: 1 2 3 4 5 6 7 8 9 10 11 12 13 14 15 16 17 18 19 20 21 22 23 24 25 26 27 28

000
FTUS43 KABR 260400 AAB
TAFATY
TAF AMD
KATY 260401Z 2604/2624 VRB04KT 3SM BR SKC
     FM261400 24010KT P6SM BKN250
     FM261700 28015G25KT P6SM BKN150=

USA.gov is the U.S. government's official web portal to all federal, state and local government web resources and services.